Latest Weather Observations for Adelaide (West Terrace / ngayirdapira)

IDS60901

Issued at 6:51 am CDT Thursday 28 October 2021 (issued every 10 minutes, with the page automatically refreshed every 10 minutes)

About weather observations | Map of Adelaide area stations | Latest observations for Adelaide area | Other Formats
Station Details ID: 023000 Name: ADELAIDE (WEST TERRACE / NGAYIRDAPIRA) Lat: -34.93 Lon: 138.58 Height: 29.32 m
Data from the previous 72 hours. | See also: Recent months at Adelaide (West Terrace / ngayirdapira)
Date/Time
CDT
Temp
°C
App
Temp
°C
Dew
Point
°C
Rel
Hum
%
Delta-T
°C
Wind Press
QNH
hPa
Press
MSL
hPa
Rain since
9am
mm
Dir  Spd
km/h
Gust
km/h
Spd
kts
Gust
kts
28/06:42am 15.3 14.7 12.4 83 1.6 S 7 26 4 14 1008.5 1008.4 2.8
28/06:30am 15.4 14.3 11.8 79 2.0 SE 9 15 5 8 1006.5 1006.4 2.8
28/06:00am 15.1 14.9 13.0 87 1.2 E 6 9 3 5 1006.5 1006.4 2.8
28/05:30am 14.1 13.5 12.3 89 1.0 N 7 11 4 6 1007.4 1007.3 2.8
28/05:00am 13.9 14.6 12.1 89 1.0 CALM 0 6 0 3 1006.6 1006.5 2.8
28/04:30am 14.7 14.4 12.6 87 1.2 SW 6 9 3 5 1006.5 1006.4 2.8
28/04:00am 15.6 15.6 12.4 81 1.8 ENE 4 11 2 6 1006.6 1006.5 2.8
28/03:30am 15.9 15.4 12.6 81 1.8 N 7 9 4 5 1007.3 1007.2 2.8
28/03:00am 16.2 16.2 13.5 84 1.5 NNE 6 9 3 5 1007.0 1006.9 2.8
28/02:30am 16.8 15.8 13.5 81 1.9 E 11 17 6 9 1007.5 1007.4 2.8
28/02:00am 15.7 16.4 13.5 87 1.2 SSW 2 7 1 4 1008.5 1008.4 2.8
28/01:30am 15.7 16.1 13.7 88 1.1 NW 4 9 2 5 1008.9 1008.8 2.8
28/01:00am 16.2 17.4 13.9 86 1.3 CALM 0 0 0 0 1009.0 1008.9 2.8
28/12:30am 16.2 16.7 13.9 86 1.3 NW 4 7 2 4 1009.5 1009.4 2.8
28/12:00am 16.8 17.0 14.1 84 1.5 W 6 9 3 5 1009.6 1009.5 2.8
 
Date/Time
CDT
Temp
°C
App
Temp
°C
Dew
Point
°C
Rel
Hum
%
Delta-T
°C
Wind Press
QNH
hPa
Press
MSL
hPa
Rain since
9am
mm
Dir  Spd
km/h
Gust
km/h
Spd
kts
Gust
kts
27/11:30pm 17.7 17.7 13.6 77 2.3 WSW 6 13 3 7 1009.8 1009.7 2.8
27/11:00pm 18.6 18.5 13.2 71 3.1 S 6 13 3 7 1009.8 1009.7 2.8
27/10:30pm 18.5 17.8 13.1 71 3.1 SSW 9 15 5 8 1009.8 1009.7 2.8
27/10:00pm 18.8 17.7 13.2 70 3.2 SSW 11 17 6 9 1009.8 1009.7 2.8
27/09:30pm 18.4 17.0 13.5 73 2.8 SW 13 20 7 11 1009.6 1009.5 2.8
27/09:00pm 19.2 17.4 13.4 69 3.3 SW 15 24 8 13 1009.1 1009.0 2.8
27/08:30pm 21.3 20.4 11.3 53 5.6 S 7 11 4 6 1008.7 1008.6 2.8
27/08:00pm 22.6 22.6 11.0 48 6.4 SSE 2 7 1 4 1008.3 1008.2 2.8
27/07:30pm 23.9 23.4 11.9 47 6.8 WSW 6 11 3 6 1007.8 1007.7 2.8
27/07:00pm 25.8 23.9 11.9 42 8.0 W 13 20 7 11 1007.6 1007.5 2.8
27/06:30pm 27.6 24.8 8.5 30 10.4 NW 13 19 7 10 1007.3 1007.2 2.8
27/06:00pm 27.9 25.5 10.1 33 10.0 WNW 13 19 7 10 1007.4 1007.3 2.8
27/05:30pm 27.3 26.1 11.7 37 9.0 N 9 15 5 8 1007.5 1007.4 2.8
27/05:00pm 26.9 25.4 11.8 39 8.7 N 11 19 6 10 1007.4 1007.3 2.8
27/04:30pm 26.1 24.1 11.5 40 8.3 NNW 13 24 7 13 1007.6 1007.5 2.8
27/04:00pm 26.4 24.2 10.9 38 8.7 NNW 13 24 7 13 1007.7 1007.6 2.8
27/03:30pm 26.0 24.5 13.2 45 7.5 N 13 20 7 11 1007.7 1007.6 2.8
27/03:00pm 25.0 23.1 14.2 51 6.4 N 17 26 9 14 1008.1 1008.0 2.8
27/02:30pm 24.0 22.0 13.8 53 6.0 NNE 17 26 9 14 1008.8 1008.7 2.8
27/02:00pm 22.7 21.5 14.0 58 5.1 NNE 13 20 7 11 1009.3 1009.2 2.8
27/01:30pm 20.6 19.7 13.8 65 3.9 NNE 11 17 6 9 1009.8 1009.7 2.8
27/01:00pm 20.0 19.2 13.0 64 4.0 NNE 9 17 5 9 1009.5 1009.4 2.8
27/12:30pm 18.6 16.6 12.6 68 3.4 ESE 15 24 8 13 1009.4 1009.3 2.8
27/12:13pm 18.2 17.7 13.7 75 2.6 E 9 19 5 10 1010.7 1010.6 2.8
27/12:04pm 17.9 16.9 13.4 75 2.5 NW 11 19 6 10 1011.5 1011.4 2.6
27/12:00pm 17.8 16.4 13.3 75 2.5 W 13 19 7 10 1013.7 1013.6 2.6
27/11:55am 18.1 16.0 12.3 69 3.2 WNW 15 28 8 15 1013.9 1013.8 2.2
27/11:30am 20.4 15.5 7.1 42 6.8 NW 22 39 12 21 1013.5 1013.4 0.0
27/11:28am 21.0 15.9 6.2 38 7.4 NW 22 39 12 21 1013.4 1013.3 0.0
27/11:00am 23.1 18.9 1.5 24 10.1 N 13 22 7 12 1011.4 1011.3 0.0
27/10:30am 23.3 19.3 0.4 22 10.5 N 11 17 6 9 1010.8 1010.7 0.0
27/10:00am 23.0 18.8 -1.1 20 10.7 N 11 19 6 10 1011.0 1010.9 0.0
27/09:30am 23.3 17.1 2.2 25 10.0 NW 24 35 13 19 1011.6 1011.5 0.0
27/09:00am 26.0 20.4 -6.7 11 13.4 NNW 15 24 8 13 1010.0 1009.9 0.0
27/08:30am 24.9 20.7 -3.5 15 12.3 NE 9 15 5 8 1008.8 1008.7 0.0
27/08:00am 24.3 18.9 -4.9 14 12.2 NNE 15 20 8 11 1007.9 1007.8 0.0
27/07:30am 23.7 17.6 -7.4 12 12.3 NNE 17 26 9 14 1007.9 1007.8 0.0
27/07:00am 23.1 17.0 -7.8 12 12.1 NNE 17 22 9 12 1007.8 1007.7 0.0
27/06:30am 22.1 16.8 -7.6 13 11.5 NE 13 22 7 12 1007.8 1007.7 0.0
27/06:00am 22.1 16.8 -7.6 13 11.5 NE 13 24 7 13 1007.8 1007.7 0.0
27/05:30am 22.4 17.0 -8.4 12 11.8 NE 13 20 7 11 1007.8 1007.7 0.0
27/05:00am 22.4 17.0 -8.4 12 11.8 NE 13 22 7 12 1008.0 1007.9 0.0
27/04:30am 22.8 17.3 -9.2 11 12.1 NE 13 20 7 11 1008.1 1008.0 0.0
27/04:00am 22.7 16.9 -9.2 11 12.1 NE 15 22 8 12 1007.8 1007.7 0.0
27/03:30am 22.9 17.5 -8.0 12 12.0 NE 13 22 7 12 1007.8 1007.7 0.0
27/03:00am 23.1 16.9 -8.9 11 12.3 NE 17 24 9 13 1008.2 1008.1 0.0
27/02:30am 22.9 17.1 -9.1 11 12.2 NE 15 22 8 12 1008.4 1008.3 0.0
27/02:00am 23.4 17.1 -9.9 10 12.5 NE 17 30 9 16 1008.9 1008.8 0.0
27/01:30am 22.8 16.8 -7.0 13 11.8 NE 17 24 9 13 1009.4 1009.3 0.0
27/01:00am 22.4 16.9 -5.5 15 11.3 NE 15 24 8 13 1009.8 1009.7 0.0
27/12:30am 22.5 17.5 -4.5 16 11.2 NE 13 20 7 11 1010.2 1010.1 0.0
27/12:00am 23.2 18.1 -4.8 15 11.6 NE 13 19 7 10 1010.4 1010.3 0.0
 
Date/Time
CDT
Temp
°C
App
Temp
°C
Dew
Point
°C
Rel
Hum
%
Delta-T
°C
Wind Press
QNH
hPa
Press
MSL
hPa
Rain since
9am
mm
Dir  Spd
km/h
Gust
km/h
Spd
kts
Gust
kts
26/11:30pm 23.6 18.1 -5.4 14 11.9 NE 15 24 8 13 1010.6 1010.5 0.0
26/11:00pm 23.5 18.5 -4.6 15 11.7 NE 13 20 7 11 1010.9 1010.8 0.0
26/10:30pm 23.5 18.6 -3.7 16 11.5 ENE 13 20 7 11 1011.2 1011.1 0.0
26/10:00pm 24.1 19.5 -4.1 15 11.9 ENE 11 19 6 10 1011.5 1011.4 0.0
26/09:30pm 23.7 19.4 -2.0 18 11.3 ENE 11 17 6 9 1011.5 1011.4 0.0
26/09:00pm 23.4 19.7 -0.1 21 10.7 NE 9 11 5 6 1011.4 1011.3 0.0
26/08:30pm 24.3 21.0 -0.1 20 11.2 NE 7 11 4 6 1011.4 1011.3 0.0
26/08:00pm 22.6 21.1 3.2 28 9.3 CALM 0 0 0 0 1011.2 1011.1 0.0
26/07:30pm 24.0 22.1 0.4 21 10.9 CALM 0 0 0 0 1011.0 1010.9 0.0
26/07:00pm 26.4 23.3 0.2 18 12.2 SW 6 9 3 5 1011.0 1010.9 0.0
26/06:30pm 26.9 23.7 0.6 18 12.4 WSW 7 11 4 6 1011.3 1011.2 0.0
26/06:00pm 28.1 23.9 1.6 18 12.9 WSW 13 17 7 9 1011.1 1011.0 0.0
26/05:30pm 27.9 23.5 0.6 17 13.0 W 13 20 7 11 1011.1 1011.0 0.0
26/05:00pm 28.6 23.0 -2.5 13 14.1 NE 17 30 9 16 1011.2 1011.1 0.0
26/04:30pm 28.8 24.2 -1.3 14 13.9 NE 13 22 7 12 1011.3 1011.2 0.0
26/04:00pm 28.1 23.1 -0.9 15 13.5 NNE 15 24 8 13 1011.7 1011.6 0.0
26/03:30pm 28.0 22.9 -2.0 14 13.6 NNE 15 24 8 13 1012.2 1012.1 0.0
26/03:00pm 27.7 22.8 -3.2 13 13.7 NNE 13 32 7 17 1012.6 1012.5 0.0
26/02:30pm 27.7 22.9 -2.2 14 13.5 NNE 13 22 7 12 1013.0 1012.9 0.0
26/02:00pm 26.7 22.1 -1.2 16 12.7 N 13 24 7 13 1013.5 1013.4 0.0
26/01:30pm 26.8 22.3 -0.3 17 12.6 NE 13 24 7 13 1013.8 1013.7 0.0
26/01:00pm 26.5 21.7 0.3 18 12.3 NE 15 24 8 13 1014.5 1014.4 0.0
26/12:30pm 25.9 21.3 -1.0 17 12.2 NNE 13 20 7 11 1015.0 1014.9 0.0
26/12:00pm 25.5 20.3 0.2 19 11.7 N 17 28 9 15 1015.3 1015.2 0.0
26/11:30am 24.7 19.4 -0.4 19 11.4 NNE 17 26 9 14 1015.8 1015.7 0.0
26/11:00am 24.2 19.6 1.8 23 10.6 NE 15 20 8 11 1016.0 1015.9 0.0
26/10:30am 23.1 18.8 0.9 23 10.2 NNE 13 26 7 14 1016.3 1016.3 0.0
26/10:00am 22.5 17.0 0.9 24 9.9 NNE 19 26 10 14 1016.6 1016.6 0.0
26/09:30am 21.6 16.4 0.2 24 9.6 NE 17 28 9 15 1016.8 1016.8 0.0
26/09:00am 20.4 16.1 1.3 28 8.7 NE 13 24 7 13 1016.8 1016.8 0.0
26/08:30am 19.0 14.3 0.6 29 8.1 NE 15 24 8 13 1016.8 1016.8 0.0
26/08:00am 17.9 13.5 0.6 31 7.6 NE 13 19 7 10 1016.8 1016.8 0.0
26/07:30am 16.8 12.3 0.0 32 7.2 NE 13 19 7 10 1016.8 1016.8 0.0
26/07:00am 15.7 11.1 -0.9 32 6.9 NE 13 20 7 11 1016.8 1016.8 0.0
26/06:30am 15.8 10.5 -0.8 32 6.9 NE 17 26 9 14 1016.5 1016.5 0.0
26/06:00am 15.4 10.9 -0.4 34 6.6 ENE 13 20 7 11 1016.3 1016.3 0.0
26/05:30am 15.8 10.1 -0.4 33 6.8 NE 19 28 10 15 1016.3 1016.3 0.0
26/05:00am 15.7 10.5 -0.1 34 6.7 NE 17 26 9 14 1016.2 1016.2 0.0
26/04:30am 15.7 11.2 -0.1 34 6.7 ENE 13 20 7 11 1016.4 1016.4 0.0
26/04:00am 15.7 11.2 -0.1 34 6.7 ENE 13 20 7 11 1016.2 1016.2 0.0
26/03:30am 15.7 11.6 -0.5 33 6.8 ENE 11 17 6 9 1016.2 1016.2 0.0
26/03:00am 15.7 11.2 -0.1 34 6.7 ENE 13 19 7 10 1016.3 1016.3 0.0
26/02:30am 15.6 10.5 1.0 37 6.3 ENE 17 28 9 15 1016.6 1016.6 0.0
26/02:00am 15.7 11.0 1.1 37 6.4 ENE 15 22 8 12 1016.9 1016.9 0.0
26/01:30am 16.5 11.4 0.6 34 6.9 ENE 17 26 9 14 1017.2 1017.2 0.0
26/01:00am 15.8 11.6 1.9 39 6.2 ENE 13 20 7 11 1017.6 1017.6 0.0
26/12:30am 15.6 12.0 2.7 42 5.8 NE 11 19 6 10 1017.8 1017.8 0.0
26/12:00am 15.5 11.9 3.0 43 5.6 NE 11 17 6 9 1018.0 1018.0 0.0
 
Date/Time
CDT
Temp
°C
App
Temp
°C
Dew
Point
°C
Rel
Hum
%
Delta-T
°C
Wind Press
QNH
hPa
Press
MSL
hPa
Rain since
9am
mm
Dir  Spd
km/h
Gust
km/h
Spd
kts
Gust
kts
25/11:30pm 14.9 12.1 3.4 46 5.2 NE 7 11 4 6 1018.0 1018.0 0.0
25/11:00pm 14.0 11.5 3.5 49 4.7 NE 6 7 3 4 1018.2 1018.2 0.0
25/10:30pm 14.6 12.2 4.3 50 4.7 E 6 9 3 5 1018.4 1018.4 0.0
25/10:00pm 16.3 12.0 3.0 41 6.1 E 15 19 8 10 1018.4 1018.4 0.0
25/09:30pm 16.0 13.2 3.1 42 5.9 E 7 11 4 6 1018.3 1018.3 0.0
25/09:00pm 16.9 12.9 2.9 39 6.4 E 13 19 7 10 1018.2 1018.2 0.0
25/08:30pm 17.0 13.3 2.6 38 6.5 E 11 20 6 11 1018.0 1018.0 0.0
25/08:00pm 17.6 14.4 3.1 38 6.7 ESE 9 17 5 9 1017.9 1017.9 0.0
25/07:30pm 17.6 15.3 5.5 45 5.9 S 7 11 4 6 1017.7 1017.7 0.0
25/07:00pm 18.8 15.6 5.3 41 6.6 SSW 11 19 6 10 1017.7 1017.7 0.0
25/06:30pm 19.6 16.7 4.9 38 7.1 SSW 9 13 5 7 1017.7 1017.7 0.0
25/06:00pm 20.1 16.7 4.2 35 7.6 SW 11 17 6 9 1017.7 1017.7 0.0
25/05:30pm 20.2 16.5 4.7 36 7.5 SW 13 20 7 11 1017.8 1017.8 0.0
25/05:00pm 20.3 17.4 4.8 36 7.6 SSW 9 17 5 9 1018.1 1018.1 0.0
25/04:30pm 20.4 16.6 4.0 34 7.9 WSW 13 19 7 10 1018.4 1018.4 0.0
25/04:00pm 20.2 16.8 5.8 39 7.1 WSW 13 20 7 11 1018.8 1018.8 0.0
25/03:30pm 19.4 15.2 5.8 41 6.7 WSW 17 22 9 12 1019.1 1019.1 0.0
25/03:00pm 19.3 14.9 5.0 39 6.9 WSW 17 24 9 13 1019.4 1019.4 0.0
25/02:30pm 20.2 17.2 5.8 39 7.1 W 11 30 6 16 1019.8 1019.8 0.0
25/02:00pm 20.4 17.9 4.8 36 7.6 N 7 15 4 8 1020.2 1020.2 0.0
25/01:30pm 19.4 16.7 3.6 35 7.4 NW 7 15 4 8 1020.8 1020.8 0.0
25/01:00pm 18.4 15.5 2.7 35 7.2 NNE 7 13 4 7 1021.3 1021.3 0.0
25/12:30pm 17.8 14.5 2.5 36 7.0 NE 9 15 5 8 1021.8 1021.8 0.0
25/12:00pm 17.3 13.4 3.6 40 6.3 NNE 13 22 7 12 1022.3 1022.3 0.0
25/11:30am 17.2 14.5 5.5 46 5.6 N 9 15 5 8 1022.8 1022.8 0.0
25/11:00am 16.9 14.2 5.5 47 5.5 ENE 9 22 5 12 1023.2 1023.2 0.0
25/10:30am 16.1 13.2 4.5 46 5.4 ESE 9 19 5 10 1023.4 1023.4 0.0
25/10:00am 15.3 11.4 3.5 45 5.4 ENE 13 20 7 11 1023.6 1023.6 0.0
25/09:30am 14.3 9.9 4.9 53 4.4 ENE 17 22 9 12 1023.8 1023.8 0.0
25/09:00am 13.6 9.8 3.9 52 4.4 ENE 13 24 7 13 1024.0 1024.0 0.0
25/08:30am 13.0 8.8 3.9 54 4.1 ENE 15 22 8 12 1023.9 1023.9 0.0
25/08:00am 12.4 8.9 3.6 55 3.9 E 11 19 6 10 1023.6 1023.6 0.0
25/07:30am 10.9 9.7 4.4 64 2.9 CALM 0 4 0 2 1023.6 1023.6 0.0
25/07:00am 9.6 7.2 4.4 70 2.3 NE 6 9 3 5 1023.1 1023.1 0.0

Latest Capital City Observations: Canberra | Sydney | Melbourne | Brisbane | Adelaide | Perth | Hobart | Darwin

Other formats

Comma delimited format used in spreadsheet applications
http://www.bom.gov.au/fwo/IDS60901/IDS60901.94648.axf

JavaScript Object Notation format (JSON) in row-major order
http://www.bom.gov.au/fwo/IDS60901/IDS60901.94648.json

Data quality

Most of these data are generated automatically and are frequently updated. Quality checks on data are not normally performed. It is possible for incorrect values to appear. Refer to information at About Latest Weather Observations and please check the disclaimer before using these data.